Latest Weather Observations for Davis*

IDT60801

Issued at 10:35 am EDT Sunday 26 October 2014 (issued every 30 minutes, with the page automatically refreshed every 10 minutes)

About weather observations | Map of weather stations | Latest weather observations for ANT | Other Formats
Station Details ID: 300000 Name: DAVIS Lat: -68.57 Lon: 77.97 Height: 18.0 m
Data from the previous 72 hours. | See also: Recent months at Davis*
Date/Time
EDT
Temp
°C
App
Temp
°C
Dew
Point
Rel
Hum
%
Delta-T
°C
Wind Press
QNH
hPa
Press
MSL
hPa
Rain
since 9 am
mm
Dir
 
Spd
km/h
Gust
km/h
Spd
kts
Gust
kts
26/10:30am -8.9 -16.3 -20.6 38 - ESE 20 32 11 17 982.3 - -
26/10:00am -9.9 -18.1 -20.9 40 - ESE 24 30 13 16 982.3 - -
26/09:30am -10.1 -18.3 -22.3 36 - ESE 24 32 13 17 982.5 - -
26/09:00am -10.4 -19.0 -21.6 39 - E 26 30 14 16 982.3 - -
26/08:30am -10.3 -18.9 -22.1 37 - ESE 26 33 14 18 982.4 - -
26/08:00am -10.1 -17.9 -22.6 35 - ESE 22 30 12 16 982.7 982.9 -
26/07:30am -9.9 -18.9 -22.4 35 - ESE 28 35 15 19 982.7 - -
26/07:00am -10.1 -17.4 -21.7 38 - ESE 19 24 10 13 983.1 - -
26/06:30am -9.9 -17.7 -21.2 39 - ESE 22 30 12 16 983.2 - -
26/06:00am -9.8 -16.7 -21.1 39 - ESE 17 20 9 11 983.2 - -
26/05:30am -9.4 -17.2 -21.3 37 - ESE 22 32 12 17 983.2 - -
26/05:00am -9.0 -18.0 -21.6 35 - ESE 28 35 15 19 983.4 983.6 -
26/04:30am -8.8 -17.7 -21.1 36 - ESE 28 37 15 20 983.3 - -
26/04:25am -8.7 -17.6 -21.3 35 - ESE 28 35 15 19 983.3 - -
26/04:00am -8.6 -14.7 -20.0 39 - E 13 15 7 8 983.7 - -
26/03:30am -8.5 -16.3 -19.9 39 - ESE 22 26 12 14 983.5 - -
26/03:00am -8.1 -15.5 -20.8 35 - ESE 20 28 11 15 983.6 - -
26/02:30am -7.8 -15.2 -19.6 38 - ESE 20 24 11 13 983.7 - -
26/02:00am -7.3 -14.6 -18.3 41 - E 20 24 11 13 983.8 984.0 -
26/01:30am -6.9 -14.2 -18.5 39 - ESE 20 26 11 14 983.9 - -
26/01:00am -6.1 -13.4 -17.8 39 - ESE 20 24 11 13 984.0 - -
26/12:30am -5.2 -11.9 -16.4 41 - ESE 17 22 9 12 984.0 - -
26/12:00am -4.8 -11.8 -16.3 40 - ESE 19 24 10 13 984.0 - -
 
Date/Time
EDT
Temp
°C
App
Temp
°C
Dew
Point
Rel
Hum
%
Delta-T
°C
Wind Press
QNH
hPa
Press
MSL
hPa
Rain
since 9 am
mm
Dir
 
Spd
km/h
Gust
km/h
Spd
kts
Gust
kts
25/11:30pm -4.6 -10.9 -17.4 36 - SSE 15 24 8 13 984.0 - -
25/11:00pm -3.9 -10.5 -15.2 41 - SSE 17 22 9 12 984.1 984.3 -
25/10:30pm -3.9 -9.8 -15.8 39 - SSE 13 17 7 9 984.1 - -
25/10:00pm -3.0 -9.3 -16.6 34 - E 15 20 8 11 984.1 - -
25/09:30pm -2.7 -10.7 -16.3 34 - ENE 24 26 13 14 984.2 - -
25/09:00pm -3.0 -8.1 -16.3 35 - E 9 15 5 8 984.4 - -
25/08:30pm -3.1 -9.8 -16.4 35 - ESE 17 22 9 12 984.4 - -
25/08:00pm -3.0 -9.3 -16.3 35 - ESE 15 20 8 11 984.6 984.8 -
25/07:30pm -2.8 -10.0 -16.4 34 - ENE 20 26 11 14 984.4 - -
25/07:00pm -2.9 -10.1 -15.5 37 - E 20 26 11 14 984.3 - -
25/06:30pm -2.8 -9.5 -16.8 33 - ENE 17 24 9 13 984.2 - -
25/06:00pm -3.2 -9.2 -17.5 32 - E 13 19 7 10 984.3 - -
25/05:30pm -4.4 -13.5 -15.9 40 - SE 30 41 16 22 984.1 - -
25/05:00pm -3.8 -11.1 -17.3 34 - ESE 20 24 11 13 984.2 984.4 -
25/04:30pm -4.0 -11.3 -17.9 33 - ESE 20 26 11 14 984.0 - -
25/04:00pm -4.0 -10.4 -18.2 32 - E 15 20 8 11 984.1 - -
25/03:30pm -4.3 -11.3 -16.1 39 - ESE 19 24 10 13 984.1 - -
25/03:00pm -5.6 -14.0 -17.0 40 - ESE 26 33 14 18 984.0 - -
25/02:30pm -5.5 -14.3 -16.3 42 - E 28 33 15 18 983.8 - -
25/02:00pm -6.3 -14.7 -16.0 46 - ESE 26 33 14 18 984.0 984.2 -
25/01:30pm -7.1 -15.1 -15.5 51 - ESE 24 33 13 18 983.9 - -
25/01:00pm -7.3 -15.3 -16.4 48 - ESE 24 33 13 18 984.0 - -
25/12:30pm -6.7 -13.7 -16.1 47 - ESE 19 24 10 13 984.0 - -
25/12:00pm -7.0 -11.7 -14.9 53 - S 7 11 4 6 984.0 - -
25/11:30am -8.0 -12.9 -12.0 73 - SW 9 13 5 7 984.0 - -
25/11:00am -7.8 -12.2 -12.5 69 - SE 6 9 3 5 983.7 983.9 -
25/10:30am -7.8 -12.8 -13.6 63 - S 9 11 5 6 983.7 - -
25/10:00am -6.5 -12.4 -16.2 46 - NNE 13 26 7 14 983.5 - -
25/09:30am -6.6 -12.5 -15.8 48 - ENE 13 24 7 13 983.6 - -
25/09:00am -6.9 -13.1 -15.5 50 - NE 15 24 8 13 983.8 - -
25/08:30am -7.2 -13.8 -15.1 53 - NE 17 26 9 14 983.7 - -
25/08:00am -7.3 -12.8 -15.2 53 - ENE 11 19 6 10 983.7 983.9 -
25/07:30am -7.2 -15.5 -15.1 53 - ENE 26 33 14 18 983.5 - -
25/07:00am -7.0 -16.1 -15.9 49 - ENE 30 39 16 21 983.4 - -
25/06:30am -7.0 -16.1 -15.4 51 - ENE 30 39 16 21 983.2 - -
25/06:00am -7.0 -15.7 -15.2 52 - ENE 28 33 15 18 983.2 - -
25/05:30am -7.2 -15.5 -14.9 54 - ENE 26 33 14 18 983.1 - -
25/05:00am -7.0 -16.4 -14.7 54 - ENE 32 44 17 24 983.0 983.2 -
25/04:30am -7.1 -16.5 -14.6 55 - ENE 32 44 17 24 983.1 - -
25/04:00am -7.0 -16.4 -14.1 57 - ENE 32 39 17 21 983.0 - -
25/03:34am -6.8 -16.2 -14.1 56 - ENE 32 50 17 27 982.9 - -
25/03:30am -6.8 -16.2 -14.1 56 - ENE 32 41 17 22 983.0 - -
25/03:12am -6.9 -16.3 -13.7 58 - ENE 32 50 17 27 982.9 - -
25/03:00am -7.0 -17.0 -13.8 58 - ENE 35 50 19 27 982.8 - -
25/02:38am -6.8 -17.5 -13.9 57 - ENE 39 59 21 32 982.5 - -
25/02:30am -6.8 -16.8 -14.3 55 - ENE 35 46 19 25 982.8 - -
25/02:05am -6.8 -16.2 -14.3 55 - ENE 32 54 17 29 982.6 - -
25/02:00am -6.9 -15.5 -14.2 56 - ENE 28 43 15 23 982.8 983.0 -
25/01:30am -7.0 -14.5 -14.3 56 - ENE 22 30 12 16 982.7 - -
25/01:00am -7.0 -14.1 -13.6 59 - NE 20 28 11 15 982.6 - -
25/12:30am -6.8 -13.9 -14.3 55 - NE 20 28 11 15 982.3 - -
25/12:20am -6.6 -15.3 -14.8 52 - ENE 28 37 15 20 982.2 - -
25/12:00am -7.0 -10.9 -11.3 71 - SE 4 9 2 5 982.3 - -
 
Date/Time
EDT
Temp
°C
App
Temp
°C
Dew
Point
Rel
Hum
%
Delta-T
°C
Wind Press
QNH
hPa
Press
MSL
hPa
Rain
since 9 am
mm
Dir
 
Spd
km/h
Gust
km/h
Spd
kts
Gust
kts
24/11:30pm -6.5 -11.8 -11.8 66 - W 11 17 6 9 982.2 - -
24/11:00pm -7.3 -12.4 -9.7 83 - SW 11 15 6 8 982.0 982.2 -
24/10:30pm -7.4 -11.8 -10.9 76 - WSW 7 13 4 7 982.1 - -
24/10:00pm -6.3 -10.7 -13.2 58 - S 6 9 3 5 981.9 - -
24/09:30pm -5.9 -11.0 -15.4 47 - S 9 13 5 7 981.9 - -
24/09:00pm -6.1 -11.9 -15.0 49 - SSE 13 19 7 10 981.8 - -
24/08:30pm -5.3 -10.7 -14.1 50 - E 11 20 6 11 981.6 - -
24/08:00pm -4.9 -11.5 -15.5 43 - ENE 17 24 9 13 981.6 981.8 -
24/07:30pm -5.0 -11.5 -13.1 53 - N 17 26 9 14 981.6 - -
24/07:00pm -4.2 -10.9 -17.3 35 - E 17 24 9 13 981.7 - -
24/06:39pm -4.5 -12.2 -17.3 36 - E 22 30 12 16 981.6 - -
24/06:30pm -4.7 -15.2 -16.5 39 - NE 37 57 20 31 981.3 - -
24/06:00pm -5.5 -17.1 -17.2 39 - NE 43 57 23 31 981.6 - -
24/05:30pm -6.0 -17.8 -16.8 42 - NE 44 54 24 29 981.7 - -
24/05:18pm -6.2 -18.4 -17.6 40 - NE 46 65 25 35 981.8 - -
24/05:00pm -5.5 -17.1 -17.2 39 - ENE 43 54 23 29 981.7 981.9 -
24/04:30pm -6.4 -17.4 -19.0 36 - NE 39 56 21 30 981.7 - -
24/04:02pm -6.1 -16.3 -19.0 35 - ENE 35 59 19 32 981.6 - -
24/04:00pm -6.2 -16.4 -19.1 35 - ENE 35 52 19 28 981.8 - -
24/03:33pm -6.4 -17.4 -19.0 36 - NE 39 57 21 31 981.7 - -
24/03:30pm -6.1 -17.4 -17.8 39 - NE 41 57 22 31 981.6 - -
24/03:13pm -6.4 -16.2 -17.7 40 - NE 33 56 18 30 981.9 - -
24/03:00pm -6.9 -15.8 -19.4 36 - ENE 28 44 15 24 982.1 - -
24/02:58pm -7.2 -15.3 -20.0 35 - ENE 24 37 13 20 982.0 - -
24/02:52pm -7.3 -18.7 -19.5 37 - NE 41 59 22 32 981.9 - -
24/02:49pm -7.4 -18.0 -18.6 40 - NNE 37 54 20 29 982.0 - -
24/02:30pm -8.1 -18.3 -19.6 39 - ENE 35 46 19 25 982.0 - -
24/02:02pm -7.9 -18.2 -20.6 35 - ENE 35 54 19 29 982.4 - -
24/02:00pm -7.5 -17.1 -19.0 39 - ENE 32 41 17 22 982.4 982.6 -
24/01:59pm -7.8 -17.5 -19.6 38 - ENE 32 41 17 22 982.5 - -
24/01:30pm -8.0 -13.2 -18.6 42 - ENE 9 17 5 9 982.6 - -
24/01:00pm -9.3 -15.3 -19.3 44 - NNE 13 19 7 10 982.8 - -
24/12:30pm -10.5 -15.2 -20.1 45 - SSE 6 11 3 6 982.9 - -
24/12:00pm -10.9 -15.9 -21.5 41 - SW 7 13 4 7 983.1 - -
24/11:30am -11.6 -18.5 -21.1 45 - ESE 17 22 9 12 982.9 - -
24/11:00am -12.9 -20.1 -21.3 49 - SE 19 22 10 12 982.8 983.0 -
24/10:30am -13.5 -20.0 -21.9 49 - SE 15 20 8 11 982.9 - -
24/10:00am -13.6 -20.1 -22.2 48 - SE 15 20 8 11 983.0 - -
24/09:30am -13.5 -20.0 -22.6 46 - ESE 15 19 8 10 982.8 - -
24/09:00am -13.7 -19.5 -22.3 48 - E 11 17 6 9 982.8 - -
24/08:30am -14.0 -19.7 -22.1 50 - SSE 11 13 6 7 982.9 - -
24/08:00am -13.8 -18.6 -22.6 47 - S 6 7 3 4 983.1 983.3 -
24/07:30am -13.3 -18.3 -22.7 45 - S 7 9 4 5 983.1 - -
24/07:00am -12.7 -19.2 -22.6 43 - E 15 20 8 11 983.1 - -
24/06:30am -12.1 -19.0 -22.6 41 - E 17 24 9 13 983.1 - -
24/06:00am -12.6 -19.1 -22.8 42 - E 15 20 8 11 983.1 - -
24/05:30am -11.8 -19.3 -22.6 40 - E 20 28 11 15 983.0 - -
24/05:00am -11.6 -17.7 -22.7 39 - E 13 20 7 11 983.0 983.2 -
24/04:30am -11.6 -18.9 -22.2 41 - ENE 19 24 10 13 982.9 - -
24/04:00am -11.3 -19.9 -22.5 39 - ENE 26 37 14 20 982.7 - -
24/03:30am -12.0 -19.8 -20.0 51 - NNE 22 28 12 15 982.9 - -
24/03:00am -11.2 -19.4 -20.7 45 - NE 24 33 13 18 983.0 - -
24/02:30am -10.9 -19.4 -19.5 49 - NE 26 35 14 19 983.0 - -
24/02:00am -10.4 -17.2 -19.5 47 - NE 17 24 9 13 983.1 983.3 -
24/01:30am -10.9 -16.0 -16.0 66 - SE 9 11 5 6 983.2 - -
24/01:00am -11.5 -16.3 -16.4 67 - SW 7 9 4 5 983.3 - -
24/12:30am -11.0 -14.5 -17.2 60 - CALM 0 0 0 0 983.4 - -
24/12:00am -10.6 -15.2 -16.6 61 - N 6 7 3 4 983.4 - -
 
Date/Time
EDT
Temp
°C
App
Temp
°C
Dew
Point
Rel
Hum
%
Delta-T
°C
Wind Press
QNH
hPa
Press
MSL
hPa
Rain
since 9 am
mm
Dir
 
Spd
km/h
Gust
km/h
Spd
kts
Gust
kts
23/11:30pm -11.3 -16.1 -16.9 63 - N 7 11 4 6 983.4 - -
23/11:00pm -11.2 -17.9 -16.6 64 - N 17 20 9 11 983.4 983.6 -
23/10:30pm -10.8 -17.9 -16.6 62 - N 19 22 10 12 983.4 - -
23/10:00pm -10.5 -18.1 -16.9 59 - NNE 22 28 12 15 983.3 - -
23/09:30pm -10.1 -17.7 -17.0 57 - NNE 22 30 12 16 983.7 - -
23/09:00pm -10.1 -18.5 -16.8 58 - NNE 26 30 14 16 983.9 - -
23/08:30pm -10.1 -18.9 -17.2 56 - NNE 28 35 15 19 983.8 - -
23/08:00pm -9.8 -18.6 -16.5 58 - NNE 28 33 15 18 984.0 984.2 -
23/07:30pm -9.9 -19.1 -17.2 55 - NNE 30 37 16 20 984.1 - -
23/07:00pm -10.1 -19.3 -17.0 57 - NNE 30 37 16 20 984.0 - -
23/06:30pm -10.0 -18.8 -17.3 55 - NNE 28 37 15 20 984.1 - -
23/06:00pm -11.0 -18.7 -18.2 55 - NNE 22 30 12 16 984.1 - -
23/05:30pm -10.9 -19.0 -18.4 54 - NNE 24 32 13 17 984.2 - -
23/05:00pm -10.8 -19.2 -17.8 56 - N 26 32 14 17 984.1 984.3 -
23/04:30pm -11.5 -19.2 -18.5 56 - NNE 22 28 12 15 984.2 - -
23/04:00pm -12.7 -19.1 -18.6 61 - N 15 20 8 11 984.3 - -
23/03:30pm -12.9 -18.9 -18.6 62 - N 13 19 7 10 984.4 - -
23/03:00pm -12.7 -18.7 -18.8 60 - NNE 13 22 7 12 984.5 - -

Other Formats:

Comma delimited format used in spreadsheet applications
http://www.bom.gov.au/fwo/IDT60803/IDT60803.89571.axf

JavaScript Object Notation format (JSON) in row-major order
http://www.bom.gov.au/fwo/IDT60803/IDT60803.89571.json